createdAt,value
2023-05-06T00:02:42.483Z,100243.47
2023-05-06T00:05:31.048Z,100240.53
2023-05-06T00:08:21.002Z,100236.56
2023-05-06T00:11:09.489Z,100231.97
2023-05-06T00:13:57.969Z,100228.00
2023-05-06T00:16:46.565Z,100229.03
2023-05-06T00:19:35.083Z,100223.03
2023-05-06T00:22:23.614Z,100225.97
2023-05-06T00:25:13.429Z,100228.44
2023-05-06T00:28:01.957Z,100221.97
2023-05-06T00:30:50.476Z,100218.22
2023-05-06T00:33:38.979Z,100202.81
2023-05-06T00:36:27.672Z,100215.03
2023-05-06T00:39:18.992Z,100208.09
2023-05-06T00:42:08.890Z,100208.56
2023-05-06T00:44:57.317Z,100196.22
2023-05-06T00:47:45.932Z,100213.88
2023-05-06T00:50:34.975Z,100206.31
2023-05-06T00:53:23.558Z,100209.25
2023-05-06T00:56:12.257Z,100165.03
2023-05-06T00:59:02.224Z,100203.81
2023-05-06T01:01:52.164Z,100203.50
2023-05-06T01:04:41.908Z,100197.03
2023-05-06T01:07:42.341Z,100204.09
2023-05-06T01:10:36.426Z,100214.31
2023-05-06T01:13:31.114Z,100198.56
2023-05-06T01:16:21.808Z,100206.69
2023-05-06T01:19:12.341Z,100205.47
2023-05-06T01:22:02.361Z,100206.50
2023-05-06T01:24:52.130Z,100218.16
2023-05-06T01:27:40.626Z,100212.38
2023-05-06T01:30:35.297Z,100210.13
2023-05-06T01:33:28.317Z,100150.63
2023-05-06T01:36:21.490Z,100207.91
2023-05-06T01:39:18.655Z,100216.97
2023-05-06T01:42:10.777Z,100219.50
2023-05-06T01:45:01.513Z,100209.63
2023-05-06T01:47:50.187Z,100204.09
2023-05-06T01:50:38.714Z,100203.13
2023-05-06T01:53:27.207Z,100203.00
2023-05-06T01:56:16.324Z,100199.78
2023-05-06T01:59:06.594Z,100197.31
2023-05-06T02:01:55.124Z,100202.38
2023-05-06T02:04:43.658Z,100196.69
2023-05-06T02:07:32.110Z,100211.47
2023-05-06T02:10:20.611Z,100207.22
2023-05-06T02:13:10.246Z,100202.13
2023-05-06T02:16:00.179Z,100213.16
2023-05-06T02:18:48.678Z,100209.34
2023-05-06T02:21:37.880Z,100208.06
2023-05-06T02:24:26.876Z,100213.91
2023-05-06T02:27:15.386Z,100208.38
2023-05-06T02:30:03.931Z,100206.78
2023-05-06T02:32:53.800Z,100207.00
2023-05-06T02:35:42.273Z,100196.97
2023-05-06T02:38:30.729Z,100202.56
2023-05-06T02:41:19.187Z,100199.72
2023-05-06T02:44:07.634Z,100197.69
2023-05-06T02:46:56.096Z,100204.59
2023-05-06T02:49:45.938Z,100210.66
2023-05-06T02:52:34.966Z,100202.63
2023-05-06T02:55:23.673Z,100209.47
2023-05-06T02:58:12.208Z,100208.41
2023-05-06T03:01:00.714Z,100196.03
2023-05-06T03:03:49.246Z,100192.34
2023-05-06T03:06:39.048Z,100188.69
2023-05-06T03:09:27.534Z,100185.69
2023-05-06T03:12:16.543Z,100198.09
2023-05-06T03:15:05.908Z,100198.16
2023-05-06T03:17:54.451Z,100201.91
2023-05-06T03:20:42.919Z,100196.13
2023-05-06T03:23:32.918Z,100200.53
2023-05-06T03:26:21.669Z,100194.53
2023-05-06T03:29:10.153Z,100193.75
2023-05-06T03:31:58.792Z,100191.78
2023-05-06T03:34:47.254Z,100187.31
2023-05-06T03:37:35.785Z,100194.63
2023-05-06T03:40:25.704Z,100188.63
2023-05-06T03:43:14.132Z,100188.25
2023-05-06T03:46:02.671Z,100191.56
2023-05-06T03:48:51.164Z,100189.88
2023-05-06T03:51:39.643Z,100182.44
2023-05-06T03:54:28.132Z,100191.59
2023-05-06T03:57:17.943Z,100193.50
2023-05-06T04:00:07.818Z,100183.16
2023-05-06T04:02:56.399Z,100185.28
2023-05-06T04:05:45.197Z,100180.56
2023-05-06T04:08:33.652Z,100191.31
2023-05-06T04:11:22.096Z,100182.63
2023-05-06T04:14:12.005Z,100186.16
2023-05-06T04:17:00.788Z,100192.59
2023-05-06T04:19:49.523Z,100189.69
2023-05-06T04:22:38.325Z,100194.28
2023-05-06T04:25:27.977Z,100190.53
2023-05-06T04:28:17.570Z,100161.66
2023-05-06T04:31:08.950Z,100203.78
2023-05-06T04:33:57.453Z,100196.69
2023-05-06T04:36:47.002Z,100209.72
2023-05-06T04:39:36.913Z,100212.47
2023-05-06T04:42:25.565Z,100219.31
2023-05-06T04:45:14.077Z,100215.38
2023-05-06T04:48:03.946Z,100222.19
2023-05-06T04:50:52.528Z,100222.84
2023-05-06T04:53:41.243Z,100236.13
2023-05-06T04:56:29.742Z,100237.16
2023-05-06T04:59:18.294Z,100242.53
2023-05-06T05:02:06.866Z,100234.22
2023-05-06T05:04:56.713Z,100238.97
2023-05-06T05:07:45.223Z,100240.41
2023-05-06T05:10:33.762Z,100236.28
2023-05-06T05:13:22.445Z,100242.66
2023-05-06T05:16:11.008Z,100241.16
2023-05-06T05:19:02.194Z,100244.44
2023-05-06T05:21:53.336Z,100244.84
2023-05-06T05:24:41.793Z,100247.91
2023-05-06T05:27:30.525Z,100214.06
2023-05-06T05:30:19.307Z,100245.44
2023-05-06T05:33:07.985Z,100247.03
2023-05-06T05:35:56.539Z,100248.88
2023-05-06T05:38:47.771Z,100250.09
2023-05-06T05:41:36.275Z,100250.59
2023-05-06T05:44:24.703Z,100251.78
2023-05-06T05:47:13.461Z,100244.69
2023-05-06T05:50:02.100Z,100245.44
2023-05-06T05:52:51.404Z,100241.91
2023-05-06T05:55:41.262Z,100243.75
2023-05-06T05:58:29.809Z,100247.94
2023-05-06T06:01:18.552Z,100244.72
2023-05-06T06:04:07.065Z,100251.03
2023-05-06T06:06:58.019Z,100254.00
2023-05-06T06:09:46.900Z,100249.19
2023-05-06T06:12:36.801Z,100260.88
2023-05-06T06:15:25.636Z,100248.88
2023-05-06T06:18:14.375Z,100257.41
2023-05-06T06:21:02.919Z,100188.50
2023-05-06T06:23:51.401Z,100271.31
2023-05-06T06:26:39.897Z,100273.44
2023-05-06T06:29:29.722Z,100262.31
2023-05-06T06:32:18.303Z,100275.13
2023-05-06T06:35:07.560Z,100267.59
2023-05-06T06:37:56.130Z,100274.06
2023-05-06T06:40:44.640Z,100242.75
2023-05-06T06:43:33.275Z,100270.28
2023-05-06T06:46:23.837Z,100213.44
2023-05-06T06:49:12.562Z,100271.34
2023-05-06T06:52:01.207Z,100187.53
2023-05-06T06:54:49.629Z,100276.81
2023-05-06T06:57:38.158Z,100278.97
2023-05-06T07:00:26.811Z,100277.81
2023-05-06T07:03:19.479Z,100295.25
2023-05-06T07:06:09.071Z,100291.66
2023-05-06T07:08:57.652Z,100293.53
2023-05-06T07:11:46.251Z,100294.41
2023-05-06T07:14:35.257Z,100227.44
2023-05-06T07:17:26.988Z,100253.94
2023-05-06T07:20:17.203Z,100294.44
2023-05-06T07:23:08.414Z,100291.44
2023-05-06T07:25:56.851Z,100301.50
2023-05-06T07:28:45.411Z,100300.09
2023-05-06T07:31:34.714Z,100308.34
2023-05-06T07:34:23.292Z,100304.59
2023-05-06T07:37:13.195Z,100298.13
2023-05-06T07:40:01.831Z,100300.81
2023-05-06T07:42:50.438Z,100299.28
2023-05-06T07:45:38.996Z,100296.53
2023-05-06T07:48:27.820Z,100310.84
2023-05-06T07:51:17.712Z,100306.25
2023-05-06T07:54:07.503Z,100317.00
2023-05-06T07:56:57.123Z,100320.84
2023-05-06T07:59:48.861Z,100315.47
2023-05-06T08:02:38.632Z,100288.25
2023-05-06T08:05:27.257Z,100318.91
2023-05-06T08:08:15.967Z,100325.75
2023-05-06T08:11:06.105Z,100328.34
2023-05-06T08:13:54.776Z,100328.31
2023-05-06T08:16:43.504Z,100330.75
2023-05-06T08:19:32.164Z,100310.34
2023-05-06T08:22:20.675Z,100329.38
2023-05-06T08:25:10.715Z,100323.84
2023-05-06T08:28:00.782Z,100322.88
2023-05-06T08:30:51.306Z,100325.28
2023-05-06T08:33:39.820Z,100321.97
2023-05-06T08:36:29.263Z,100326.97
2023-05-06T08:39:18.271Z,100319.72
2023-05-06T08:42:07.162Z,100325.00
2023-05-06T08:44:57.796Z,100325.22
2023-05-06T08:47:47.419Z,100312.78
2023-05-06T08:50:43.189Z,100316.78
2023-05-06T08:53:32.026Z,100309.16
2023-05-06T08:56:21.213Z,100321.47
2023-05-06T08:59:09.997Z,100317.38
2023-05-06T09:02:01.060Z,100316.59
2023-05-06T09:04:49.689Z,100313.31
2023-05-06T09:07:38.240Z,100276.97
2023-05-06T09:10:32.642Z,100316.84
2023-05-06T09:13:21.261Z,100312.81
2023-05-06T09:16:09.914Z,100107.47
2023-05-06T09:19:00.112Z,100310.94
2023-05-06T09:21:50.037Z,100308.19
2023-05-06T09:24:38.549Z,100314.44
2023-05-06T09:27:28.536Z,100309.53
2023-05-06T09:30:17.096Z,100313.66
2023-05-06T09:33:06.135Z,100309.56
2023-05-06T09:35:56.367Z,100302.16
2023-05-06T09:38:44.878Z,100310.31
2023-05-06T09:41:33.985Z,100293.53
2023-05-06T09:44:24.006Z,100307.16
2023-05-06T09:47:12.527Z,100298.94
2023-05-06T09:50:02.591Z,100280.59
2023-05-06T09:52:52.518Z,100304.34
2023-05-06T09:55:41.274Z,100289.28
2023-05-06T09:58:31.836Z,100305.69
2023-05-06T10:01:32.848Z,100301.63
2023-05-06T10:04:27.774Z,100292.84
2023-05-06T10:07:19.559Z,100288.53
2023-05-06T10:10:11.909Z,100282.13
2023-05-06T10:13:00.422Z,100282.50
2023-05-06T10:15:49.963Z,100260.41
2023-05-06T10:18:39.137Z,100290.09
2023-05-06T10:21:29.055Z,100287.97
2023-05-06T10:24:20.110Z,100284.72
2023-05-06T10:27:10.925Z,100281.44
2023-05-06T10:30:00.900Z,100280.84
2023-05-06T10:32:52.124Z,100278.09
2023-05-06T10:35:49.213Z,100264.25
2023-05-06T10:38:41.802Z,100268.09
2023-05-06T10:41:30.674Z,100272.72
2023-05-06T10:44:59.351Z,100261.75
2023-05-06T10:48:09.609Z,100262.75
2023-05-06T10:51:22.245Z,100255.31
2023-05-06T10:54:11.371Z,100249.56
2023-05-06T10:57:09.723Z,100244.88
2023-05-06T10:59:59.609Z,100237.59
2023-05-06T11:02:52.465Z,100238.56
2023-05-06T11:05:51.684Z,100197.78
2023-05-06T11:08:40.275Z,100235.88
2023-05-06T11:11:48.039Z,100232.97
2023-05-06T11:14:37.576Z,100233.00
2023-05-06T11:17:34.848Z,100224.13
2023-05-06T11:20:24.319Z,100227.75
2023-05-06T11:23:12.768Z,100220.69
2023-05-06T11:26:01.256Z,100224.16
2023-05-06T11:28:51.448Z,100222.84
2023-05-06T11:31:41.762Z,100217.97
2023-05-06T11:34:32.624Z,100223.69
2023-05-06T11:37:26.610Z,100226.13
2023-05-06T11:40:16.368Z,100219.44
2023-05-06T11:43:11.846Z,100226.09
2023-05-06T11:46:00.435Z,100215.78
2023-05-06T11:48:49.123Z,100220.38
2023-05-06T11:51:38.936Z,100215.81
2023-05-06T11:54:28.224Z,100213.50
2023-05-06T11:57:16.682Z,100221.22
2023-05-06T12:00:07.805Z,100212.41
2023-05-06T12:02:56.926Z,100209.16
2023-05-06T12:05:45.652Z,100206.75
2023-05-06T12:08:37.236Z,100201.69
2023-05-06T12:11:25.966Z,100206.44
2023-05-06T12:14:14.855Z,100195.34
2023-05-06T12:17:03.796Z,100214.41
2023-05-06T12:19:52.316Z,100211.28
2023-05-06T12:22:41.798Z,100204.38
2023-05-06T12:25:31.719Z,100206.97
2023-05-06T12:28:22.239Z,100197.19
2023-05-06T12:31:20.802Z,100195.28
2023-05-06T12:34:09.720Z,100195.31
2023-05-06T12:36:58.220Z,100199.78
2023-05-06T12:39:46.693Z,100189.88
2023-05-06T12:42:36.588Z,100185.84
2023-05-06T12:45:26.111Z,100187.91
2023-05-06T12:48:17.471Z,100187.84
2023-05-06T12:51:18.648Z,100177.44
2023-05-06T12:54:29.822Z,100178.97
2023-05-06T12:57:18.508Z,100178.38
2023-05-06T13:00:10.975Z,100168.91
2023-05-06T13:02:59.787Z,100160.34
2023-05-06T13:05:50.181Z,100168.00
2023-05-06T13:08:38.825Z,100149.09
2023-05-06T13:11:27.939Z,100157.69
2023-05-06T13:14:16.442Z,100152.63
2023-05-06T13:17:06.756Z,100147.00
2023-05-06T13:19:56.953Z,100139.91
2023-05-06T13:22:54.472Z,100135.56
2023-05-06T13:25:56.325Z,100129.91
2023-05-06T13:28:52.367Z,100138.19
2023-05-06T13:31:40.888Z,100127.50
2023-05-06T13:34:30.891Z,100123.97
2023-05-06T13:37:19.391Z,100125.94
2023-05-06T13:40:09.191Z,100117.91
2023-05-06T13:42:58.007Z,100122.03
2023-05-06T13:45:46.653Z,100117.59
2023-05-06T13:48:35.234Z,100055.69
2023-05-06T13:51:27.464Z,100114.69
2023-05-06T13:54:16.082Z,100109.88
2023-05-06T13:57:05.009Z,100111.59
2023-05-06T13:59:53.498Z,100107.78
2023-05-06T14:02:42.378Z,100102.81
2023-05-06T14:05:30.972Z,100096.72
2023-05-06T14:08:20.833Z,100105.97
2023-05-06T14:11:10.139Z,100101.19
2023-05-06T14:13:58.575Z,100099.59
2023-05-06T14:16:47.535Z,100094.44
2023-05-06T14:19:36.142Z,100094.19
2023-05-06T14:22:24.679Z,100084.84
2023-05-06T14:25:14.542Z,100087.28
2023-05-06T14:28:03.151Z,100075.00
2023-05-06T14:30:52.057Z,100075.78
2023-05-06T14:33:40.618Z,100075.09
2023-05-06T14:36:29.076Z,100081.47
2023-05-06T14:39:17.516Z,100068.69
2023-05-06T14:42:07.468Z,100070.97
2023-05-06T14:44:55.919Z,100055.50
2023-05-06T14:47:44.612Z,100067.09
2023-05-06T14:50:33.256Z,100050.63
2023-05-06T14:53:21.824Z,100059.91
2023-05-06T14:56:11.477Z,100047.22
2023-05-06T14:59:03.687Z,100059.91
2023-05-06T15:01:52.502Z,100062.06
2023-05-06T15:04:40.991Z,100051.06
2023-05-06T15:07:29.500Z,100060.94
2023-05-06T15:10:18.083Z,100057.13
2023-05-06T15:13:06.912Z,100062.50
2023-05-06T15:15:57.103Z,100053.16
2023-05-06T15:18:45.713Z,100063.56
2023-05-06T15:21:34.189Z,100065.88
2023-05-06T15:24:23.070Z,100062.66
2023-05-06T15:27:11.524Z,100059.06
2023-05-06T15:30:04.147Z,100064.91
2023-05-06T15:32:54.041Z,100054.66
2023-05-06T15:35:42.530Z,100024.66
2023-05-06T15:39:00.491Z,100060.75
2023-05-06T15:41:49.328Z,100053.19
2023-05-06T15:44:37.883Z,100051.25
2023-05-06T15:47:26.405Z,100054.34
2023-05-06T15:50:28.921Z,100041.56
2023-05-06T15:53:21.865Z,100052.59
2023-05-06T15:56:18.249Z,100053.38
2023-05-06T15:59:08.127Z,100046.28
2023-05-06T16:04:48.326Z,100053.53
2023-05-06T16:07:38.461Z,100039.38
2023-05-06T16:10:26.984Z,100044.84
2023-05-06T16:13:15.580Z,100036.50
2023-05-06T16:16:04.337Z,100038.72
2023-05-06T16:18:52.838Z,100052.91
2023-05-06T16:21:41.333Z,100043.31
2023-05-06T16:24:31.245Z,100035.66
2023-05-06T16:27:19.996Z,100031.22
2023-05-06T16:30:10.001Z,100037.31
2023-05-06T16:32:58.655Z,100034.31
2023-05-06T16:35:47.157Z,100022.03
2023-05-06T16:38:35.671Z,100015.00
2023-05-06T16:41:25.689Z,100027.25
2023-05-06T16:44:14.201Z,100016.13
2023-05-06T16:47:02.764Z,100015.66
2023-05-06T16:49:51.486Z,100017.53
2023-05-06T16:52:39.938Z,100023.59
2023-05-06T16:55:28.494Z,100011.13
2023-05-06T16:58:18.377Z,100022.31
2023-05-06T17:01:08.187Z,100015.22
2023-05-06T17:03:56.993Z,100012.22
2023-05-06T17:06:45.556Z,100008.09
2023-05-06T17:09:34.157Z,100004.59
2023-05-06T17:12:23.837Z,100008.09
2023-05-06T17:15:14.041Z,100006.78
2023-05-06T17:18:02.560Z,100002.22
2023-05-06T17:20:56.626Z,99987.25
2023-05-06T17:23:45.647Z,99990.78
2023-05-06T17:26:34.967Z,99991.09
2023-05-06T17:29:23.394Z,99990.03
2023-05-06T17:32:13.257Z,99996.56
2023-05-06T17:35:01.760Z,99993.59
2023-05-06T17:37:50.394Z,99965.81
2023-05-06T17:40:38.869Z,99983.25
2023-05-06T17:43:27.346Z,99987.94
2023-05-06T17:46:17.573Z,99988.28
2023-05-06T17:49:09.255Z,99987.78
2023-05-06T17:51:59.364Z,99946.94
2023-05-06T17:55:01.052Z,99985.34
2023-05-06T17:57:54.478Z,99989.22
2023-05-06T18:00:43.066Z,99985.38
2023-05-06T18:03:31.588Z,99980.47
2023-05-06T18:06:21.519Z,99981.03
2023-05-06T18:09:10.705Z,99963.91
2023-05-06T18:11:59.253Z,99983.00
2023-05-06T18:14:48.674Z,99987.13
2023-05-06T18:17:37.185Z,99990.94
2023-05-06T18:20:25.690Z,99983.59
2023-05-06T18:23:15.869Z,99991.75
2023-05-06T18:26:05.400Z,99981.69
2023-05-06T18:28:54.074Z,99989.84
2023-05-06T18:31:43.051Z,99994.50
2023-05-06T18:34:31.500Z,99996.41
2023-05-06T18:37:20.038Z,99993.38
2023-05-06T18:40:10.839Z,100006.19
2023-05-06T18:42:59.590Z,99998.81
2023-05-06T18:45:48.223Z,99999.03
2023-05-06T18:48:36.767Z,100002.22
2023-05-06T18:51:25.298Z,100012.56
2023-05-06T18:54:14.994Z,100012.00
2023-05-06T18:57:06.117Z,100011.44
2023-05-06T18:59:54.676Z,100010.81
2023-05-06T19:02:43.287Z,100006.16
2023-05-06T19:05:31.794Z,100012.88
2023-05-06T19:08:20.348Z,100006.28
2023-05-06T19:11:15.517Z,99987.03
2023-05-06T19:14:05.369Z,100025.72
2023-05-06T19:16:53.858Z,100014.44
2023-05-06T19:19:42.447Z,100027.63
2023-05-06T19:22:31.458Z,100019.09
2023-05-06T19:25:19.996Z,100034.56
2023-05-06T19:28:09.531Z,100020.69
2023-05-06T19:30:59.441Z,100031.22
2023-05-06T19:33:47.987Z,100025.38
2023-05-06T19:36:36.502Z,100023.84
2023-05-06T19:39:25.003Z,100029.78
2023-05-06T19:42:13.466Z,100019.31
2023-05-06T19:45:07.858Z,100019.03
2023-05-06T19:47:57.850Z,100019.72
2023-05-06T19:50:46.517Z,100019.69
2023-05-06T19:53:35.220Z,100025.13
2023-05-06T19:56:23.721Z,100041.75
2023-05-06T19:59:12.184Z,100036.19
2023-05-06T20:02:01.839Z,100032.59
2023-05-06T20:04:51.797Z,100023.47
2023-05-06T20:07:41.264Z,99990.59
2023-05-06T20:10:30.500Z,100033.56
2023-05-06T20:13:19.336Z,100035.69
2023-05-06T20:16:08.192Z,100032.66
2023-05-06T20:18:57.144Z,100019.13
2023-05-06T20:21:47.090Z,100035.78
2023-05-06T20:24:36.707Z,100034.63
2023-05-06T20:27:25.180Z,100046.22
2023-05-06T20:30:13.935Z,100041.31
2023-05-06T20:33:02.580Z,100039.59
2023-05-06T20:35:52.288Z,100050.91
2023-05-06T20:38:42.068Z,100044.13
2023-05-06T20:41:30.977Z,100053.88
2023-05-06T20:44:19.496Z,100049.19
2023-05-06T20:47:12.276Z,100041.91
2023-05-06T20:50:00.857Z,100042.16
2023-05-06T20:52:49.365Z,100041.81
2023-05-06T20:55:39.271Z,100035.81
2023-05-06T20:58:28.557Z,100034.41
2023-05-06T21:01:17.473Z,100041.06
2023-05-06T21:04:06.314Z,100035.91
2023-05-06T21:06:54.796Z,100035.16
2023-05-06T21:09:43.734Z,100025.66
2023-05-06T21:12:33.797Z,100034.34
2023-05-06T21:15:22.395Z,100030.56
2023-05-06T21:18:11.052Z,100022.50
2023-05-06T21:20:59.730Z,100027.44
2023-05-06T21:23:48.207Z,100012.13
2023-05-06T21:26:36.741Z,100032.00
2023-05-06T21:29:26.612Z,100029.75
2023-05-06T21:32:15.457Z,100022.38
2023-05-06T21:35:04.352Z,100024.97
2023-05-06T21:37:52.885Z,100009.94
2023-05-06T21:40:41.434Z,99982.00
2023-05-06T21:43:31.439Z,100008.03
2023-05-06T21:46:23.250Z,100005.81
2023-05-06T21:49:11.756Z,99996.78
2023-05-06T21:52:00.207Z,100000.06
2023-05-06T21:54:48.661Z,99994.00
2023-05-06T21:57:37.418Z,99993.53
2023-05-06T22:00:26.187Z,100008.47
2023-05-06T22:03:16.059Z,99998.13
2023-05-06T22:06:04.796Z,100002.38
2023-05-06T22:08:53.380Z,100002.03
2023-05-06T22:11:41.887Z,100010.16
2023-05-06T22:14:40.097Z,100009.78
2023-05-06T22:17:32.688Z,100016.06
2023-05-06T22:20:23.680Z,100013.00
2023-05-06T22:23:12.374Z,100013.38
2023-05-06T22:26:00.861Z,100010.69
2023-05-06T22:28:49.707Z,100011.47
2023-05-06T22:31:38.227Z,100001.97
2023-05-06T22:34:26.788Z,100000.94
2023-05-06T22:37:17.238Z,99983.09
2023-05-06T22:40:07.136Z,100017.38
2023-05-06T22:42:55.687Z,100006.81
2023-05-06T22:45:44.173Z,100011.03
2023-05-06T22:48:32.722Z,100003.19
2023-05-06T22:51:21.244Z,100008.59
2023-05-06T22:54:11.186Z,100007.97
2023-05-06T22:56:59.732Z,100014.22
2023-05-06T22:59:48.176Z,100020.91
2023-05-06T23:02:37.241Z,100013.06
2023-05-06T23:05:25.766Z,100014.00
2023-05-06T23:08:14.258Z,100001.78
2023-05-06T23:11:04.111Z,100012.31
2023-05-06T23:13:52.599Z,100010.22
2023-05-06T23:16:41.167Z,100007.41
2023-05-06T23:19:29.734Z,100015.53
2023-05-06T23:22:18.171Z,100004.94
2023-05-06T23:25:09.399Z,100012.09
2023-05-06T23:28:01.261Z,100006.91
2023-05-06T23:30:50.070Z,100009.84
2023-05-06T23:33:38.569Z,100008.09
2023-05-06T23:36:27.288Z,99992.25
2023-05-06T23:39:16.075Z,100008.78
2023-05-06T23:42:04.682Z,100001.59
2023-05-06T23:44:54.739Z,100003.34
2023-05-06T23:47:43.581Z,100009.56
2023-05-06T23:50:32.086Z,100000.72
2023-05-06T23:53:20.594Z,100002.63
2023-05-06T23:56:09.107Z,100006.88
2023-05-06T23:58:57.805Z,100007.56
